sensor_id;sensor_type;location;lat;lon;timestamp;P1;durP1;ratioP1;P2;durP2;ratioP2
24151;SDS011;12311;50.866;4.332;2022-12-07T00:01:05;7.85;;;4.05;;
24151;SDS011;12311;50.866;4.332;2022-12-07T00:03:36;11.07;;;3.97;;
24151;SDS011;12311;50.866;4.332;2022-12-07T00:06:03;13.68;;;6.07;;
24151;SDS011;12311;50.866;4.332;2022-12-07T00:08:31;6.40;;;3.83;;
24151;SDS011;12311;50.866;4.332;2022-12-07T00:11:02;9.98;;;4.72;;
24151;SDS011;12311;50.866;4.332;2022-12-07T00:13:32;8.00;;;4.05;;
24151;SDS011;12311;50.866;4.332;2022-12-07T00:16:06;7.72;;;4.13;;
24151;SDS011;12311;50.866;4.332;2022-12-07T00:18:34;10.27;;;4.38;;
24151;SDS011;12311;50.866;4.332;2022-12-07T00:21:03;12.13;;;4.55;;
24151;SDS011;12311;50.866;4.332;2022-12-07T00:23:37;8.45;;;4.10;;
24151;SDS011;12311;50.866;4.332;2022-12-07T00:26:07;9.48;;;4.63;;
24151;SDS011;12311;50.866;4.332;2022-12-07T00:28:38;13.23;;;5.00;;
24151;SDS011;12311;50.866;4.332;2022-12-07T00:31:04;8.90;;;4.38;;
24151;SDS011;12311;50.866;4.332;2022-12-07T00:33:33;7.45;;;3.63;;
24151;SDS011;12311;50.866;4.332;2022-12-07T00:36:00;14.73;;;4.05;;
24151;SDS011;12311;50.866;4.332;2022-12-07T00:38:28;8.18;;;4.53;;
24151;SDS011;12311;50.866;4.332;2022-12-07T00:40:55;10.57;;;5.53;;
24151;SDS011;12311;50.866;4.332;2022-12-07T00:43:22;11.13;;;5.13;;
24151;SDS011;12311;50.866;4.332;2022-12-07T00:45:48;10.60;;;4.65;;
24151;SDS011;12311;50.866;4.332;2022-12-07T00:48:14;12.57;;;5.32;;
24151;SDS011;12311;50.866;4.332;2022-12-07T00:50:40;10.20;;;5.20;;
24151;SDS011;12311;50.866;4.332;2022-12-07T00:53:05;10.07;;;4.50;;
24151;SDS011;12311;50.866;4.332;2022-12-07T00:55:34;12.18;;;4.93;;
24151;SDS011;12311;50.866;4.332;2022-12-07T00:58:00;8.90;;;5.68;;
24151;SDS011;12311;50.866;4.332;2022-12-07T01:00:26;5.93;;;3.22;;
24151;SDS011;12311;50.866;4.332;2022-12-07T01:02:52;9.98;;;4.35;;
24151;SDS011;12311;50.866;4.332;2022-12-07T01:05:18;9.82;;;4.88;;
24151;SDS011;12311;50.866;4.332;2022-12-07T01:07:43;9.38;;;4.35;;
24151;SDS011;12311;50.866;4.332;2022-12-07T01:10:09;8.13;;;4.38;;
24151;SDS011;12311;50.866;4.332;2022-12-07T01:12:35;12.48;;;4.90;;
24151;SDS011;12311;50.866;4.332;2022-12-07T01:15:01;9.35;;;5.00;;
24151;SDS011;12311;50.866;4.332;2022-12-07T01:17:27;11.30;;;4.32;;
24151;SDS011;12311;50.866;4.332;2022-12-07T01:19:53;10.90;;;4.97;;
24151;SDS011;12311;50.866;4.332;2022-12-07T01:22:19;12.75;;;5.30;;
24151;SDS011;12311;50.866;4.332;2022-12-07T01:24:45;8.88;;;4.57;;
24151;SDS011;12311;50.866;4.332;2022-12-07T01:27:11;13.90;;;5.63;;
24151;SDS011;12311;50.866;4.332;2022-12-07T01:29:38;12.20;;;5.57;;
24151;SDS011;12311;50.866;4.332;2022-12-07T01:32:04;7.45;;;4.80;;
24151;SDS011;12311;50.866;4.332;2022-12-07T01:34:29;10.32;;;5.30;;
24151;SDS011;12311;50.866;4.332;2022-12-07T01:36:55;11.88;;;4.07;;
24151;SDS011;12311;50.866;4.332;2022-12-07T01:39:21;13.38;;;5.13;;
24151;SDS011;12311;50.866;4.332;2022-12-07T01:41:47;11.02;;;5.80;;
24151;SDS011;12311;50.866;4.332;2022-12-07T01:44:17;15.20;;;6.85;;
24151;SDS011;12311;50.866;4.332;2022-12-07T01:46:50;11.35;;;5.85;;
24151;SDS011;12311;50.866;4.332;2022-12-07T01:51:54;13.70;;;5.38;;
24151;SDS011;12311;50.866;4.332;2022-12-07T01:54:41;11.73;;;5.22;;
24151;SDS011;12311;50.866;4.332;2022-12-07T01:57:08;14.40;;;5.78;;
24151;SDS011;12311;50.866;4.332;2022-12-07T01:59:35;16.02;;;6.00;;
24151;SDS011;12311;50.866;4.332;2022-12-07T02:02:02;10.23;;;5.25;;
24151;SDS011;12311;50.866;4.332;2022-12-07T02:04:32;5.50;;;3.70;;
24151;SDS011;12311;50.866;4.332;2022-12-07T02:07:00;8.75;;;4.55;;
24151;SDS011;12311;50.866;4.332;2022-12-07T02:09:28;8.93;;;4.93;;
24151;SDS011;12311;50.866;4.332;2022-12-07T02:11:54;14.32;;;5.45;;
24151;SDS011;12311;50.866;4.332;2022-12-07T02:14:20;10.55;;;5.63;;
24151;SDS011;12311;50.866;4.332;2022-12-07T02:28:07;9.38;;;4.88;;
24151;SDS011;12311;50.866;4.332;2022-12-07T02:30:45;11.82;;;5.35;;
24151;SDS011;12311;50.866;4.332;2022-12-07T02:33:17;8.35;;;4.43;;
24151;SDS011;12311;50.866;4.332;2022-12-07T02:36:00;10.75;;;3.95;;
24151;SDS011;12311;50.866;4.332;2022-12-07T02:41:15;9.30;;;4.75;;
24151;SDS011;12311;50.866;4.332;2022-12-07T02:43:47;13.05;;;5.50;;
24151;SDS011;12311;50.866;4.332;2022-12-07T02:46:20;7.80;;;4.47;;
24151;SDS011;12311;50.866;4.332;2022-12-07T02:48:58;8.00;;;4.07;;
24151;SDS011;12311;50.866;4.332;2022-12-07T02:51:26;7.75;;;4.25;;
24151;SDS011;12311;50.866;4.332;2022-12-07T02:53:56;5.40;;;3.13;;
24151;SDS011;12311;50.866;4.332;2022-12-07T02:56:25;10.02;;;4.50;;
24151;SDS011;12311;50.866;4.332;2022-12-07T03:10:01;9.00;;;4.18;;
24151;SDS011;12311;50.866;4.332;2022-12-07T03:12:42;9.85;;;4.28;;
24151;SDS011;12311;50.866;4.332;2022-12-07T03:15:20;8.07;;;4.75;;
24151;SDS011;12311;50.866;4.332;2022-12-07T03:17:51;6.00;;;3.90;;
24151;SDS011;12311;50.866;4.332;2022-12-07T03:20:18;12.13;;;4.70;;
24151;SDS011;12311;50.866;4.332;2022-12-07T03:22:46;6.97;;;3.63;;
24151;SDS011;12311;50.866;4.332;2022-12-07T03:25:13;8.07;;;4.15;;
24151;SDS011;12311;50.866;4.332;2022-12-07T03:27:57;13.60;;;4.68;;
24151;SDS011;12311;50.866;4.332;2022-12-07T03:30:29;7.78;;;4.00;;
24151;SDS011;12311;50.866;4.332;2022-12-07T03:33:22;7.00;;;3.63;;
24151;SDS011;12311;50.866;4.332;2022-12-07T03:35:56;17.70;;;4.20;;
24151;SDS011;12311;50.866;4.332;2022-12-07T03:38:34;7.70;;;4.20;;
24151;SDS011;12311;50.866;4.332;2022-12-07T03:41:09;6.65;;;3.83;;
24151;SDS011;12311;50.866;4.332;2022-12-07T03:43:43;9.52;;;3.22;;
24151;SDS011;12311;50.866;4.332;2022-12-07T03:46:17;8.32;;;4.72;;
24151;SDS011;12311;50.866;4.332;2022-12-07T03:49:45;15.43;;;4.78;;
24151;SDS011;12311;50.866;4.332;2022-12-07T03:52:42;8.52;;;3.67;;
24151;SDS011;12311;50.866;4.332;2022-12-07T03:57:55;14.23;;;4.80;;
24151;SDS011;12311;50.866;4.332;2022-12-07T04:00:27;9.80;;;4.90;;
24151;SDS011;12311;50.866;4.332;2022-12-07T04:02:53;4.40;;;3.63;;
24151;SDS011;12311;50.866;4.332;2022-12-07T04:05:19;6.13;;;3.42;;
24151;SDS011;12311;50.866;4.332;2022-12-07T04:07:45;9.93;;;4.30;;
24151;SDS011;12311;50.866;4.332;2022-12-07T04:10:11;6.45;;;3.08;;
24151;SDS011;12311;50.866;4.332;2022-12-07T04:12:37;6.72;;;4.82;;
24151;SDS011;12311;50.866;4.332;2022-12-07T04:15:03;7.25;;;4.22;;
24151;SDS011;12311;50.866;4.332;2022-12-07T04:17:29;9.07;;;3.92;;
24151;SDS011;12311;50.866;4.332;2022-12-07T04:19:55;11.13;;;3.88;;
24151;SDS011;12311;50.866;4.332;2022-12-07T04:22:20;11.75;;;3.97;;
24151;SDS011;12311;50.866;4.332;2022-12-07T04:24:46;8.52;;;4.32;;
24151;SDS011;12311;50.866;4.332;2022-12-07T04:27:12;5.45;;;3.22;;
24151;SDS011;12311;50.866;4.332;2022-12-07T04:29:37;15.88;;;4.18;;
24151;SDS011;12311;50.866;4.332;2022-12-07T04:32:03;5.75;;;3.60;;
24151;SDS011;12311;50.866;4.332;2022-12-07T04:34:29;7.03;;;3.97;;
24151;SDS011;12311;50.866;4.332;2022-12-07T04:36:54;20.27;;;5.13;;
24151;SDS011;12311;50.866;4.332;2022-12-07T04:39:25;8.35;;;3.80;;
24151;SDS011;12311;50.866;4.332;2022-12-07T04:44:18;5.88;;;4.18;;
24151;SDS011;12311;50.866;4.332;2022-12-07T04:46:45;9.98;;;4.35;;
24151;SDS011;12311;50.866;4.332;2022-12-07T04:49:11;5.43;;;3.90;;
24151;SDS011;12311;50.866;4.332;2022-12-07T04:51:38;8.38;;;3.65;;
24151;SDS011;12311;50.866;4.332;2022-12-07T04:54:04;10.27;;;4.40;;
24151;SDS011;12311;50.866;4.332;2022-12-07T04:56:30;12.30;;;4.28;;
24151;SDS011;12311;50.866;4.332;2022-12-07T04:58:56;13.20;;;4.07;;
24151;SDS011;12311;50.866;4.332;2022-12-07T05:01:24;11.63;;;4.93;;
24151;SDS011;12311;50.866;4.332;2022-12-07T05:03:50;7.97;;;3.75;;
24151;SDS011;12311;50.866;4.332;2022-12-07T05:06:16;7.00;;;3.95;;
24151;SDS011;12311;50.866;4.332;2022-12-07T05:08:42;7.72;;;3.67;;
24151;SDS011;12311;50.866;4.332;2022-12-07T05:11:08;10.82;;;5.25;;
24151;SDS011;12311;50.866;4.332;2022-12-07T05:13:35;6.82;;;3.75;;
24151;SDS011;12311;50.866;4.332;2022-12-07T05:16:01;6.97;;;3.33;;
24151;SDS011;12311;50.866;4.332;2022-12-07T05:18:27;10.07;;;4.55;;
24151;SDS011;12311;50.866;4.332;2022-12-07T05:20:52;7.43;;;4.28;;
24151;SDS011;12311;50.866;4.332;2022-12-07T05:23:18;14.77;;;5.10;;
24151;SDS011;12311;50.866;4.332;2022-12-07T05:25:44;6.15;;;3.50;;
24151;SDS011;12311;50.866;4.332;2022-12-07T05:28:10;5.95;;;3.35;;
24151;SDS011;12311;50.866;4.332;2022-12-07T05:30:36;10.85;;;4.28;;
24151;SDS011;12311;50.866;4.332;2022-12-07T05:33:02;13.00;;;5.60;;
24151;SDS011;12311;50.866;4.332;2022-12-07T05:35:28;9.73;;;4.25;;
24151;SDS011;12311;50.866;4.332;2022-12-07T05:37:54;7.75;;;3.97;;
24151;SDS011;12311;50.866;4.332;2022-12-07T05:40:20;11.55;;;4.32;;
24151;SDS011;12311;50.866;4.332;2022-12-07T05:42:46;15.63;;;6.03;;
24151;SDS011;12311;50.866;4.332;2022-12-07T05:45:12;6.50;;;4.00;;
24151;SDS011;12311;50.866;4.332;2022-12-07T05:47:37;5.65;;;3.10;;
24151;SDS011;12311;50.866;4.332;2022-12-07T05:50:03;5.20;;;3.20;;
24151;SDS011;12311;50.866;4.332;2022-12-07T05:52:30;7.28;;;3.40;;
24151;SDS011;12311;50.866;4.332;2022-12-07T05:54:56;5.38;;;3.35;;
24151;SDS011;12311;50.866;4.332;2022-12-07T05:57:22;8.70;;;3.17;;
24151;SDS011;12311;50.866;4.332;2022-12-07T05:59:47;7.00;;;3.95;;
24151;SDS011;12311;50.866;4.332;2022-12-07T06:02:14;13.60;;;3.55;;
24151;SDS011;12311;50.866;4.332;2022-12-07T06:04:44;8.65;;;3.53;;
24151;SDS011;12311;50.866;4.332;2022-12-07T06:07:12;7.35;;;4.13;;
24151;SDS011;12311;50.866;4.332;2022-12-07T06:09:40;8.60;;;4.07;;
24151;SDS011;12311;50.866;4.332;2022-12-07T06:12:05;7.80;;;3.70;;
24151;SDS011;12311;50.866;4.332;2022-12-07T06:14:52;7.18;;;3.25;;
24151;SDS011;12311;50.866;4.332;2022-12-07T06:17:17;6.35;;;3.53;;
24151;SDS011;12311;50.866;4.332;2022-12-07T06:19:43;8.27;;;4.03;;
24151;SDS011;12311;50.866;4.332;2022-12-07T06:22:09;9.27;;;3.97;;
24151;SDS011;12311;50.866;4.332;2022-12-07T06:24:36;9.43;;;4.60;;
24151;SDS011;12311;50.866;4.332;2022-12-07T06:27:03;6.45;;;3.55;;
24151;SDS011;12311;50.866;4.332;2022-12-07T06:29:29;8.60;;;4.22;;
24151;SDS011;12311;50.866;4.332;2022-12-07T06:31:55;8.32;;;4.40;;
24151;SDS011;12311;50.866;4.332;2022-12-07T06:34:21;11.18;;;5.13;;
24151;SDS011;12311;50.866;4.332;2022-12-07T06:36:48;6.55;;;3.35;;
24151;SDS011;12311;50.866;4.332;2022-12-07T06:39:20;8.38;;;4.30;;
24151;SDS011;12311;50.866;4.332;2022-12-07T06:41:47;8.27;;;4.32;;
24151;SDS011;12311;50.866;4.332;2022-12-07T06:44:13;7.82;;;4.03;;
24151;SDS011;12311;50.866;4.332;2022-12-07T06:46:39;7.78;;;4.72;;
24151;SDS011;12311;50.866;4.332;2022-12-07T06:49:05;12.93;;;4.05;;
24151;SDS011;12311;50.866;4.332;2022-12-07T06:51:31;8.20;;;4.13;;
24151;SDS011;12311;50.866;4.332;2022-12-07T06:53:57;12.23;;;3.78;;
24151;SDS011;12311;50.866;4.332;2022-12-07T06:56:23;10.13;;;5.47;;
24151;SDS011;12311;50.866;4.332;2022-12-07T06:58:49;11.75;;;5.18;;
24151;SDS011;12311;50.866;4.332;2022-12-07T07:01:17;18.08;;;5.43;;
24151;SDS011;12311;50.866;4.332;2022-12-07T07:03:43;16.35;;;7.50;;
24151;SDS011;12311;50.866;4.332;2022-12-07T07:06:10;7.30;;;4.03;;
24151;SDS011;12311;50.866;4.332;2022-12-07T07:08:36;7.07;;;4.65;;
24151;SDS011;12311;50.866;4.332;2022-12-07T07:11:02;12.98;;;4.60;;
24151;SDS011;12311;50.866;4.332;2022-12-07T07:13:28;10.30;;;5.28;;
24151;SDS011;12311;50.866;4.332;2022-12-07T07:15:54;10.35;;;4.93;;
24151;SDS011;12311;50.866;4.332;2022-12-07T07:18:20;17.83;;;5.70;;
24151;SDS011;12311;50.866;4.332;2022-12-07T07:20:46;11.70;;;5.00;;
24151;SDS011;12311;50.866;4.332;2022-12-07T07:23:12;13.45;;;5.45;;
24151;SDS011;12311;50.866;4.332;2022-12-07T07:25:38;8.48;;;4.57;;
24151;SDS011;12311;50.866;4.332;2022-12-07T07:28:04;13.65;;;4.47;;
24151;SDS011;12311;50.866;4.332;2022-12-07T07:30:30;10.98;;;5.38;;
24151;SDS011;12311;50.866;4.332;2022-12-07T07:32:57;13.50;;;4.65;;
24151;SDS011;12311;50.866;4.332;2022-12-07T07:35:23;5.50;;;4.18;;
24151;SDS011;12311;50.866;4.332;2022-12-07T07:37:49;8.00;;;4.53;;
24151;SDS011;12311;50.866;4.332;2022-12-07T07:40:15;9.82;;;5.10;;
24151;SDS011;12311;50.866;4.332;2022-12-07T07:42:41;9.63;;;5.13;;
24151;SDS011;12311;50.866;4.332;2022-12-07T07:45:06;12.30;;;5.32;;
24151;SDS011;12311;50.866;4.332;2022-12-07T07:47:33;9.63;;;5.53;;
24151;SDS011;12311;50.866;4.332;2022-12-07T07:49:58;9.10;;;5.63;;
24151;SDS011;12311;50.866;4.332;2022-12-07T07:52:24;8.25;;;4.25;;
24151;SDS011;12311;50.866;4.332;2022-12-07T07:54:50;7.30;;;2.88;;
24151;SDS011;12311;50.866;4.332;2022-12-07T07:57:16;8.55;;;3.95;;
24151;SDS011;12311;50.866;4.332;2022-12-07T07:59:42;10.77;;;4.55;;
24151;SDS011;12311;50.866;4.332;2022-12-07T08:02:14;6.50;;;3.35;;
24151;SDS011;12311;50.866;4.332;2022-12-07T08:04:42;7.55;;;3.33;;
24151;SDS011;12311;50.866;4.332;2022-12-07T08:07:08;7.45;;;4.93;;
24151;SDS011;12311;50.866;4.332;2022-12-07T08:09:34;7.13;;;3.50;;
24151;SDS011;12311;50.866;4.332;2022-12-07T08:11:59;11.18;;;4.90;;
24151;SDS011;12311;50.866;4.332;2022-12-07T08:14:25;8.82;;;5.38;;
24151;SDS011;12311;50.866;4.332;2022-12-07T08:16:52;12.75;;;4.95;;
24151;SDS011;12311;50.866;4.332;2022-12-07T08:19:18;19.10;;;8.38;;
24151;SDS011;12311;50.866;4.332;2022-12-07T08:21:43;15.20;;;7.10;;
24151;SDS011;12311;50.866;4.332;2022-12-07T08:24:09;16.45;;;5.95;;
24151;SDS011;12311;50.866;4.332;2022-12-07T08:26:35;10.45;;;4.63;;
24151;SDS011;12311;50.866;4.332;2022-12-07T08:29:00;11.70;;;6.55;;
24151;SDS011;12311;50.866;4.332;2022-12-07T08:31:26;14.98;;;6.18;;
24151;SDS011;12311;50.866;4.332;2022-12-07T08:33:52;13.43;;;5.82;;
24151;SDS011;12311;50.866;4.332;2022-12-07T08:36:18;8.13;;;4.97;;
24151;SDS011;12311;50.866;4.332;2022-12-07T08:38:44;15.98;;;6.57;;
24151;SDS011;12311;50.866;4.332;2022-12-07T08:41:10;15.80;;;7.25;;
24151;SDS011;12311;50.866;4.332;2022-12-07T08:43:36;31.45;;;13.25;;
24151;SDS011;12311;50.866;4.332;2022-12-07T08:48:41;36.08;;;14.25;;
24151;SDS011;12311;50.866;4.332;2022-12-07T08:51:16;14.40;;;6.53;;
24151;SDS011;12311;50.866;4.332;2022-12-07T08:53:42;46.90;;;14.60;;
24151;SDS011;12311;50.866;4.332;2022-12-07T08:56:09;16.13;;;7.15;;
24151;SDS011;12311;50.866;4.332;2022-12-07T08:58:36;14.95;;;7.00;;
24151;SDS011;12311;50.866;4.332;2022-12-07T09:01:04;15.50;;;6.15;;
24151;SDS011;12311;50.866;4.332;2022-12-07T09:03:30;17.77;;;6.70;;
24151;SDS011;12311;50.866;4.332;2022-12-07T09:05:56;21.88;;;9.18;;
24151;SDS011;12311;50.866;4.332;2022-12-07T09:08:22;21.52;;;7.47;;
24151;SDS011;12311;50.866;4.332;2022-12-07T09:10:51;27.08;;;11.32;;
24151;SDS011;12311;50.866;4.332;2022-12-07T09:13:17;13.15;;;5.22;;
24151;SDS011;12311;50.866;4.332;2022-12-07T09:15:42;14.70;;;5.80;;
24151;SDS011;12311;50.866;4.332;2022-12-07T09:18:08;14.90;;;4.28;;
24151;SDS011;12311;50.866;4.332;2022-12-07T09:20:34;6.97;;;4.32;;
24151;SDS011;12311;50.866;4.332;2022-12-07T09:22:59;11.30;;;5.88;;
24151;SDS011;12311;50.866;4.332;2022-12-07T09:25:25;5.82;;;3.97;;
24151;SDS011;12311;50.866;4.332;2022-12-07T09:27:57;8.90;;;4.05;;
24151;SDS011;12311;50.866;4.332;2022-12-07T09:30:24;8.13;;;5.68;;
24151;SDS011;12311;50.866;4.332;2022-12-07T09:32:50;9.50;;;4.47;;
24151;SDS011;12311;50.866;4.332;2022-12-07T09:35:18;6.63;;;4.47;;
24151;SDS011;12311;50.866;4.332;2022-12-07T09:37:43;9.25;;;4.10;;
24151;SDS011;12311;50.866;4.332;2022-12-07T09:40:09;8.00;;;4.22;;
24151;SDS011;12311;50.866;4.332;2022-12-07T09:42:36;7.32;;;3.63;;
24151;SDS011;12311;50.866;4.332;2022-12-07T09:45:06;13.40;;;4.95;;
24151;SDS011;12311;50.866;4.332;2022-12-07T09:47:37;10.40;;;3.80;;
24151;SDS011;12311;50.866;4.332;2022-12-07T09:50:05;6.75;;;3.78;;
24151;SDS011;12311;50.866;4.332;2022-12-07T09:52:44;8.05;;;4.55;;
24151;SDS011;12311;50.866;4.332;2022-12-07T09:55:13;10.00;;;5.45;;
24151;SDS011;12311;50.866;4.332;2022-12-07T09:57:41;9.15;;;3.70;;
24151;SDS011;12311;50.866;4.332;2022-12-07T10:00:16;5.18;;;2.95;;
24151;SDS011;12311;50.866;4.332;2022-12-07T10:02:44;17.27;;;3.60;;
24151;SDS011;12311;50.866;4.332;2022-12-07T10:05:22;5.68;;;2.65;;
24151;SDS011;12311;50.866;4.332;2022-12-07T10:08:02;5.75;;;3.13;;
24151;SDS011;12311;50.866;4.332;2022-12-07T10:10:32;7.35;;;3.13;;
24151;SDS011;12311;50.866;4.332;2022-12-07T10:20:47;6.88;;;3.55;;
24151;SDS011;12311;50.866;4.332;2022-12-07T10:23:14;8.95;;;2.92;;
24151;SDS011;12311;50.866;4.332;2022-12-07T10:25:41;5.55;;;3.30;;
24151;SDS011;12311;50.866;4.332;2022-12-07T10:30:33;5.03;;;3.00;;
24151;SDS011;12311;50.866;4.332;2022-12-07T10:35:56;7.15;;;2.58;;
24151;SDS011;12311;50.866;4.332;2022-12-07T10:38:24;5.43;;;3.35;;
24151;SDS011;12311;50.866;4.332;2022-12-07T10:41:05;5.57;;;3.13;;
24151;SDS011;12311;50.866;4.332;2022-12-07T10:43:32;6.70;;;3.00;;
24151;SDS011;12311;50.866;4.332;2022-12-07T10:46:13;9.82;;;3.15;;
24151;SDS011;12311;50.866;4.332;2022-12-07T10:51:48;3.45;;;2.08;;
24151;SDS011;12311;50.866;4.332;2022-12-07T10:57:37;5.15;;;2.45;;
24151;SDS011;12311;50.866;4.332;2022-12-07T11:00:22;4.90;;;2.05;;
24151;SDS011;12311;50.866;4.332;2022-12-07T11:05:52;4.65;;;2.60;;
24151;SDS011;12311;50.866;4.332;2022-12-07T11:11:16;4.05;;;1.98;;
24151;SDS011;12311;50.866;4.332;2022-12-07T11:13:48;6.00;;;2.45;;
24151;SDS011;12311;50.866;4.332;2022-12-07T11:19:22;4.43;;;2.50;;
24151;SDS011;12311;50.866;4.332;2022-12-07T11:21:57;5.32;;;3.05;;
24151;SDS011;12311;50.866;4.332;2022-12-07T11:27:13;4.63;;;2.03;;
24151;SDS011;12311;50.866;4.332;2022-12-07T11:32:57;12.20;;;2.85;;
24151;SDS011;12311;50.866;4.332;2022-12-07T11:35:45;6.95;;;2.47;;
24151;SDS011;12311;50.866;4.332;2022-12-07T11:38:15;10.20;;;2.38;;
24151;SDS011;12311;50.866;4.332;2022-12-07T11:40:45;4.40;;;2.65;;
24151;SDS011;12311;50.866;4.332;2022-12-07T11:43:31;4.07;;;2.38;;
24151;SDS011;12311;50.866;4.332;2022-12-07T11:46:03;5.70;;;2.15;;
24151;SDS011;12311;50.866;4.332;2022-12-07T11:48:44;5.97;;;2.65;;
24151;SDS011;12311;50.866;4.332;2022-12-07T11:51:20;7.28;;;2.67;;
24151;SDS011;12311;50.866;4.332;2022-12-07T11:54:04;3.90;;;2.47;;
24151;SDS011;12311;50.866;4.332;2022-12-07T11:56:37;6.80;;;2.45;;
24151;SDS011;12311;50.866;4.332;2022-12-07T12:04:52;10.00;;;1.92;;
24151;SDS011;12311;50.866;4.332;2022-12-07T12:07:23;3.20;;;1.42;;
24151;SDS011;12311;50.866;4.332;2022-12-07T12:14:52;7.47;;;1.40;;
24151;SDS011;12311;50.866;4.332;2022-12-07T12:20:31;3.50;;;1.70;;
24151;SDS011;12311;50.866;4.332;2022-12-07T12:26:20;9.30;;;1.70;;
24151;SDS011;12311;50.866;4.332;2022-12-07T12:29:06;4.38;;;1.80;;
24151;SDS011;12311;50.866;4.332;2022-12-07T12:31:46;3.80;;;1.60;;
24151;SDS011;12311;50.866;4.332;2022-12-07T12:37:14;1.25;;;0.90;;
24151;SDS011;12311;50.866;4.332;2022-12-07T12:40:41;0.88;;;0.80;;
24151;SDS011;12311;50.866;4.332;2022-12-07T12:42:48;4.90;;;1.50;;
24151;SDS011;12311;50.866;4.332;2022-12-07T12:45:20;1.50;;;1.00;;
24151;SDS011;12311;50.866;4.332;2022-12-07T12:47:56;2.90;;;0.88;;
24151;SDS011;12311;50.866;4.332;2022-12-07T12:50:41;1.25;;;1.08;;
24151;SDS011;12311;50.866;4.332;2022-12-07T12:58:33;0.98;;;0.88;;
24151;SDS011;12311;50.866;4.332;2022-12-07T13:04:12;3.55;;;1.08;;
24151;SDS011;12311;50.866;4.332;2022-12-07T13:06:46;1.13;;;0.85;;
24151;SDS011;12311;50.866;4.332;2022-12-07T13:09:22;2.05;;;1.02;;
24151;SDS011;12311;50.866;4.332;2022-12-07T13:12:03;1.50;;;1.02;;
24151;SDS011;12311;50.866;4.332;2022-12-07T13:18:01;4.75;;;1.08;;
24151;SDS011;12311;50.866;4.332;2022-12-07T13:20:07;5.88;;;1.42;;
24151;SDS011;12311;50.866;4.332;2022-12-07T13:25:05;1.38;;;1.05;;
24151;SDS011;12311;50.866;4.332;2022-12-07T13:27:32;3.38;;;1.10;;
24151;SDS011;12311;50.866;4.332;2022-12-07T13:29:59;6.10;;;1.63;;
24151;SDS011;12311;50.866;4.332;2022-12-07T13:32:27;8.25;;;1.77;;
24151;SDS011;12311;50.866;4.332;2022-12-07T13:34:54;3.42;;;0.93;;
24151;SDS011;12311;50.866;4.332;2022-12-07T13:42:27;2.90;;;1.20;;
24151;SDS011;12311;50.866;4.332;2022-12-07T13:44:55;5.80;;;1.27;;
24151;SDS011;12311;50.866;4.332;2022-12-07T13:53:07;4.50;;;1.10;;
24151;SDS011;12311;50.866;4.332;2022-12-07T13:55:38;2.58;;;1.45;;
24151;SDS011;12311;50.866;4.332;2022-12-07T13:58:10;4.50;;;1.30;;
24151;SDS011;12311;50.866;4.332;2022-12-07T14:00:36;2.88;;;1.02;;
24151;SDS011;12311;50.866;4.332;2022-12-07T14:05:36;2.33;;;1.50;;
24151;SDS011;12311;50.866;4.332;2022-12-07T14:15:56;4.78;;;3.25;;
24151;SDS011;12311;50.866;4.332;2022-12-07T14:21:02;3.78;;;1.70;;
24151;SDS011;12311;50.866;4.332;2022-12-07T14:23:41;9.85;;;2.17;;
24151;SDS011;12311;50.866;4.332;2022-12-07T14:26:08;3.03;;;1.90;;
24151;SDS011;12311;50.866;4.332;2022-12-07T14:28:38;1.77;;;1.27;;
24151;SDS011;12311;50.866;4.332;2022-12-07T14:31:08;0.85;;;0.70;;
24151;SDS011;12311;50.866;4.332;2022-12-07T14:33:38;0.70;;;0.70;;
24151;SDS011;12311;50.866;4.332;2022-12-07T14:36:05;9.70;;;0.90;;
24151;SDS011;12311;50.866;4.332;2022-12-07T14:38:33;4.35;;;0.60;;
24151;SDS011;12311;50.866;4.332;2022-12-07T14:40:59;1.05;;;0.73;;
24151;SDS011;12311;50.866;4.332;2022-12-07T14:43:45;2.45;;;1.35;;
24151;SDS011;12311;50.866;4.332;2022-12-07T14:46:11;3.40;;;0.70;;
24151;SDS011;12311;50.866;4.332;2022-12-07T14:48:36;4.30;;;1.77;;
24151;SDS011;12311;50.866;4.332;2022-12-07T14:51:02;0.93;;;0.77;;
24151;SDS011;12311;50.866;4.332;2022-12-07T14:53:29;4.28;;;1.42;;
24151;SDS011;12311;50.866;4.332;2022-12-07T14:56:02;3.90;;;1.30;;
24151;SDS011;12311;50.866;4.332;2022-12-07T14:58:30;2.55;;;1.20;;
24151;SDS011;12311;50.866;4.332;2022-12-07T15:00:57;5.55;;;1.27;;
24151;SDS011;12311;50.866;4.332;2022-12-07T15:03:23;1.23;;;0.80;;
24151;SDS011;12311;50.866;4.332;2022-12-07T15:05:49;2.40;;;1.55;;
24151;SDS011;12311;50.866;4.332;2022-12-07T15:08:15;1.88;;;1.08;;
24151;SDS011;12311;50.866;4.332;2022-12-07T15:10:40;2.92;;;1.55;;
24151;SDS011;12311;50.866;4.332;2022-12-07T15:13:06;1.80;;;0.75;;
24151;SDS011;12311;50.866;4.332;2022-12-07T15:15:51;1.75;;;0.98;;
24151;SDS011;12311;50.866;4.332;2022-12-07T15:18:19;1.50;;;1.05;;
24151;SDS011;12311;50.866;4.332;2022-12-07T15:20:45;2.67;;;1.02;;
24151;SDS011;12311;50.866;4.332;2022-12-07T15:23:12;1.65;;;0.93;;
24151;SDS011;12311;50.866;4.332;2022-12-07T15:25:41;1.90;;;0.98;;
24151;SDS011;12311;50.866;4.332;2022-12-07T15:28:08;12.27;;;3.65;;
24151;SDS011;12311;50.866;4.332;2022-12-07T15:30:36;15.38;;;4.20;;
24151;SDS011;12311;50.866;4.332;2022-12-07T15:33:02;6.72;;;2.40;;
24151;SDS011;12311;50.866;4.332;2022-12-07T15:35:28;3.05;;;1.77;;
24151;SDS011;12311;50.866;4.332;2022-12-07T15:37:54;6.05;;;1.23;;
24151;SDS011;12311;50.866;4.332;2022-12-07T15:40:20;6.60;;;2.20;;
24151;SDS011;12311;50.866;4.332;2022-12-07T15:42:45;5.63;;;1.92;;
24151;SDS011;12311;50.866;4.332;2022-12-07T15:45:11;7.72;;;2.17;;
24151;SDS011;12311;50.866;4.332;2022-12-07T15:47:42;4.72;;;2.22;;
24151;SDS011;12311;50.866;4.332;2022-12-07T15:50:10;3.13;;;1.52;;
24151;SDS011;12311;50.866;4.332;2022-12-07T15:52:38;2.65;;;1.65;;
24151;SDS011;12311;50.866;4.332;2022-12-07T15:55:04;2.97;;;1.20;;
24151;SDS011;12311;50.866;4.332;2022-12-07T15:57:30;7.97;;;1.77;;
24151;SDS011;12311;50.866;4.332;2022-12-07T15:59:57;3.05;;;1.60;;
24151;SDS011;12311;50.866;4.332;2022-12-07T16:02:23;4.65;;;1.95;;
24151;SDS011;12311;50.866;4.332;2022-12-07T16:04:49;2.17;;;1.40;;
24151;SDS011;12311;50.866;4.332;2022-12-07T16:07:15;5.63;;;1.90;;
24151;SDS011;12311;50.866;4.332;2022-12-07T16:09:41;6.38;;;2.83;;
24151;SDS011;12311;50.866;4.332;2022-12-07T16:12:08;9.88;;;2.40;;
24151;SDS011;12311;50.866;4.332;2022-12-07T16:14:35;12.77;;;2.08;;
24151;SDS011;12311;50.866;4.332;2022-12-07T16:17:01;6.70;;;2.60;;
24151;SDS011;12311;50.866;4.332;2022-12-07T16:19:26;8.63;;;2.00;;
24151;SDS011;12311;50.866;4.332;2022-12-07T16:21:52;2.45;;;1.48;;
24151;SDS011;12311;50.866;4.332;2022-12-07T16:24:18;4.80;;;1.85;;
24151;SDS011;12311;50.866;4.332;2022-12-07T16:26:44;6.63;;;2.45;;
24151;SDS011;12311;50.866;4.332;2022-12-07T16:29:13;1.80;;;1.27;;
24151;SDS011;12311;50.866;4.332;2022-12-07T16:31:39;6.55;;;2.33;;
24151;SDS011;12311;50.866;4.332;2022-12-07T16:34:05;4.82;;;1.95;;
24151;SDS011;12311;50.866;4.332;2022-12-07T16:36:31;5.80;;;2.88;;
24151;SDS011;12311;50.866;4.332;2022-12-07T16:39:00;3.20;;;1.90;;
24151;SDS011;12311;50.866;4.332;2022-12-07T16:41:26;9.50;;;2.30;;
24151;SDS011;12311;50.866;4.332;2022-12-07T16:43:52;6.35;;;2.50;;
24151;SDS011;12311;50.866;4.332;2022-12-07T16:46:18;3.85;;;2.47;;
24151;SDS011;12311;50.866;4.332;2022-12-07T16:48:44;3.10;;;1.92;;
24151;SDS011;12311;50.866;4.332;2022-12-07T16:51:10;5.90;;;3.00;;
24151;SDS011;12311;50.866;4.332;2022-12-07T16:53:38;8.63;;;2.97;;
24151;SDS011;12311;50.866;4.332;2022-12-07T16:56:15;6.43;;;2.65;;
24151;SDS011;12311;50.866;4.332;2022-12-07T16:58:42;4.97;;;2.63;;
24151;SDS011;12311;50.866;4.332;2022-12-07T17:01:18;8.20;;;3.13;;